createdAt,value
2022-10-31T00:01:36.582Z,12.60
2022-10-31T00:04:02.938Z,12.71
2022-10-31T00:06:29.438Z,12.55
2022-10-31T00:09:02.463Z,12.33
2022-10-31T00:11:28.824Z,12.35
2022-10-31T00:13:55.218Z,12.41
2022-10-31T00:16:22.557Z,12.51
2022-10-31T00:18:50.208Z,12.60
2022-10-31T00:21:16.582Z,12.51
2022-10-31T00:23:42.922Z,12.45
2022-10-31T00:26:09.250Z,12.53
2022-10-31T00:28:35.642Z,12.67
2022-10-31T00:31:02.308Z,12.58
2022-10-31T00:33:28.831Z,12.58
2022-10-31T00:35:55.177Z,12.43
2022-10-31T00:38:21.544Z,12.52
2022-10-31T00:40:47.870Z,12.41
2022-10-31T00:43:14.208Z,12.23
2022-10-31T00:45:40.703Z,12.21
2022-10-31T00:48:07.073Z,12.15
2022-10-31T00:50:33.414Z,12.23
2022-10-31T00:52:59.771Z,12.27
2022-10-31T00:55:26.130Z,12.45
2022-10-31T00:57:52.520Z,12.36
2022-10-31T01:00:18.941Z,12.43
2022-10-31T01:02:45.345Z,12.53
2022-10-31T01:05:11.763Z,12.55
2022-10-31T01:07:38.522Z,12.52
2022-10-31T01:10:05.237Z,12.60
2022-10-31T01:12:36.308Z,12.57
2022-10-31T01:15:02.637Z,12.52
2022-10-31T01:17:28.969Z,12.56
2022-10-31T01:19:55.289Z,12.54
2022-10-31T01:22:21.627Z,12.33
2022-10-31T01:24:47.937Z,12.31
2022-10-31T01:27:14.282Z,12.24
2022-10-31T01:29:40.598Z,12.36
2022-10-31T01:32:06.931Z,12.36
2022-10-31T01:34:33.237Z,12.37
2022-10-31T01:36:59.579Z,12.37
2022-10-31T01:39:25.899Z,12.19
2022-10-31T01:41:52.613Z,12.15
2022-10-31T01:44:18.892Z,12.12
2022-10-31T01:46:52.954Z,12.06
2022-10-31T01:49:35.476Z,12.04
2022-10-31T01:52:06.115Z,12.10
2022-10-31T01:54:36.719Z,11.86
2022-10-31T01:57:03.146Z,11.76
2022-10-31T01:59:30.016Z,11.66
2022-10-31T02:01:56.468Z,11.82
2022-10-31T02:04:22.897Z,11.60
2022-10-31T02:06:53.978Z,11.65
2022-10-31T02:09:24.291Z,11.68
2022-10-31T02:11:53.890Z,11.55
2022-10-31T02:14:21.791Z,11.59
2022-10-31T02:16:48.140Z,11.49
2022-10-31T02:19:15.152Z,11.52
2022-10-31T02:21:50.710Z,11.68
2022-10-31T02:24:35.877Z,11.64
2022-10-31T02:27:02.177Z,11.54
2022-10-31T02:29:34.520Z,11.41
2022-10-31T02:32:09.661Z,11.33
2022-10-31T02:34:42.539Z,11.36
2022-10-31T02:37:08.848Z,11.34
2022-10-31T02:39:37.113Z,11.32
2022-10-31T02:42:18.757Z,11.25
2022-10-31T02:44:51.176Z,11.21
2022-10-31T02:47:25.207Z,11.21
2022-10-31T02:49:54.641Z,11.08
2022-10-31T02:52:21.593Z,11.03
2022-10-31T02:54:48.081Z,11.17
2022-10-31T02:57:14.497Z,11.21
2022-10-31T02:59:41.631Z,11.04
2022-10-31T03:02:08.096Z,11.17
2022-10-31T03:04:41.174Z,11.08
2022-10-31T03:07:17.586Z,11.01
2022-10-31T03:09:49.942Z,11.06
2022-10-31T03:12:23.676Z,11.21
2022-10-31T03:14:54.240Z,11.13
2022-10-31T03:17:23.265Z,11.17
2022-10-31T03:19:50.049Z,11.03
2022-10-31T03:22:23.378Z,11.03
2022-10-31T03:24:50.123Z,11.27
2022-10-31T03:27:17.398Z,11.22
2022-10-31T03:29:43.723Z,11.30
2022-10-31T03:32:11.446Z,11.21
2022-10-31T03:34:38.294Z,11.41
2022-10-31T03:37:05.990Z,11.62
2022-10-31T03:39:32.578Z,11.59
2022-10-31T03:42:05.119Z,11.58
2022-10-31T03:44:31.516Z,11.77
2022-10-31T03:46:58.037Z,11.57
2022-10-31T03:49:24.358Z,11.59
2022-10-31T03:51:59.079Z,11.47
2022-10-31T03:54:27.018Z,11.45
2022-10-31T03:56:57.492Z,11.45
2022-10-31T03:59:27.704Z,11.44
2022-10-31T04:01:54.838Z,11.32
2022-10-31T04:04:21.289Z,11.12
2022-10-31T04:06:47.612Z,10.90
2022-10-31T04:09:13.949Z,10.84
2022-10-31T04:11:41.748Z,10.77
2022-10-31T04:14:08.102Z,10.82
2022-10-31T04:16:34.429Z,10.95
2022-10-31T04:19:00.777Z,11.07
2022-10-31T04:21:30.251Z,11.04
2022-10-31T04:23:56.735Z,11.02
2022-10-31T04:26:23.051Z,11.02
2022-10-31T04:28:49.432Z,10.92
2022-10-31T04:31:15.745Z,10.76
2022-10-31T04:33:42.136Z,10.70
2022-10-31T04:36:08.488Z,10.71
2022-10-31T04:38:34.840Z,10.61
2022-10-31T04:41:01.246Z,10.61
2022-10-31T04:43:27.580Z,10.68
2022-10-31T04:45:53.912Z,10.69
2022-10-31T04:48:20.255Z,10.76
2022-10-31T04:50:46.564Z,10.81
2022-10-31T04:53:12.902Z,10.81
2022-10-31T04:55:39.283Z,10.90
2022-10-31T04:58:06.013Z,10.98
2022-10-31T05:00:32.572Z,10.95
2022-10-31T05:03:00.578Z,10.97
2022-10-31T05:05:31.396Z,10.91
2022-10-31T05:07:57.848Z,10.94
2022-10-31T05:10:25.022Z,10.86
2022-10-31T05:12:52.071Z,10.83
2022-10-31T05:15:20.832Z,10.85
2022-10-31T05:17:47.200Z,10.75
2022-10-31T05:20:13.834Z,10.59
2022-10-31T05:22:44.394Z,10.42
2022-10-31T05:25:11.070Z,10.50
2022-10-31T05:27:39.577Z,10.39
2022-10-31T05:30:06.227Z,10.19
2022-10-31T05:32:37.454Z,10.45
2022-10-31T05:35:03.869Z,10.45
2022-10-31T05:37:30.211Z,10.59
2022-10-31T05:39:56.535Z,10.71
2022-10-31T05:42:22.897Z,10.82
2022-10-31T05:44:49.209Z,10.63
2022-10-31T05:47:15.935Z,10.51
2022-10-31T05:49:42.342Z,10.60
2022-10-31T05:52:08.668Z,10.79
2022-10-31T05:54:35.357Z,10.77
2022-10-31T05:57:01.690Z,10.67
2022-10-31T05:59:28.048Z,10.58
2022-10-31T06:01:54.410Z,10.50
2022-10-31T06:04:20.868Z,10.59
2022-10-31T06:06:47.238Z,10.64
2022-10-31T06:09:13.590Z,10.72
2022-10-31T06:11:39.911Z,10.69
2022-10-31T06:14:06.367Z,10.50
2022-10-31T06:16:32.701Z,10.45
2022-10-31T06:18:59.032Z,10.40
2022-10-31T06:21:25.424Z,10.45
2022-10-31T06:23:51.744Z,10.63
2022-10-31T06:26:18.061Z,10.74
2022-10-31T06:28:44.408Z,10.77
2022-10-31T06:31:10.717Z,10.90
2022-10-31T06:33:37.062Z,10.92
2022-10-31T06:36:03.797Z,10.96
2022-10-31T06:38:30.178Z,10.96
2022-10-31T06:40:56.527Z,10.90
2022-10-31T06:43:22.925Z,10.99
2022-10-31T06:45:49.226Z,10.85
2022-10-31T06:48:17.520Z,10.82
2022-10-31T06:50:44.479Z,10.77
2022-10-31T06:55:42.238Z,11.29
2022-10-31T06:58:10.128Z,11.42
2022-10-31T07:00:36.815Z,11.34
2022-10-31T07:03:04.193Z,11.28
2022-10-31T07:05:30.649Z,11.18
2022-10-31T07:08:01.517Z,11.08
2022-10-31T07:10:28.690Z,10.98
2022-10-31T07:12:55.700Z,10.95
2022-10-31T07:15:22.056Z,11.04
2022-10-31T07:17:48.384Z,11.21
2022-10-31T07:20:15.126Z,11.28
2022-10-31T07:22:41.576Z,11.28
2022-10-31T07:25:08.062Z,11.53
2022-10-31T07:27:42.791Z,11.58
2022-10-31T07:30:10.133Z,11.61
2022-10-31T07:32:39.946Z,11.68
2022-10-31T07:35:07.246Z,11.75
2022-10-31T07:37:33.572Z,11.77
2022-10-31T07:39:59.933Z,11.77
2022-10-31T07:42:26.272Z,11.83
2022-10-31T07:44:55.272Z,11.92
2022-10-31T07:47:23.938Z,11.90
2022-10-31T07:49:50.291Z,12.03
2022-10-31T07:52:16.635Z,12.13
2022-10-31T07:54:43.010Z,12.21
2022-10-31T07:57:09.325Z,12.32
2022-10-31T07:59:35.691Z,12.44
2022-10-31T08:02:02.018Z,12.59
2022-10-31T08:04:28.360Z,12.63
2022-10-31T08:06:54.669Z,12.62
2022-10-31T08:09:21.013Z,12.63
2022-10-31T08:11:47.391Z,12.74
2022-10-31T08:14:13.749Z,12.87
2022-10-31T08:16:40.074Z,12.94
2022-10-31T08:19:06.440Z,13.01
2022-10-31T08:21:33.670Z,13.03
2022-10-31T08:24:00.045Z,13.18
2022-10-31T08:26:26.448Z,13.36
2022-10-31T08:28:53.482Z,13.45
2022-10-31T08:31:19.802Z,13.50
2022-10-31T08:33:46.159Z,13.54
2022-10-31T08:36:12.463Z,13.61
2022-10-31T08:38:38.837Z,13.70
2022-10-31T08:41:05.167Z,13.78
2022-10-31T08:43:31.512Z,13.78
2022-10-31T08:45:57.880Z,13.65
2022-10-31T08:48:24.346Z,13.72
2022-10-31T08:50:50.658Z,13.80
2022-10-31T08:53:18.017Z,13.91
2022-10-31T08:55:44.706Z,13.95
2022-10-31T08:58:11.965Z,13.86
2022-10-31T09:00:39.353Z,13.83
2022-10-31T09:03:06.572Z,13.85
2022-10-31T09:05:33.182Z,13.99
2022-10-31T09:08:00.189Z,13.98
2022-10-31T09:10:27.026Z,14.00
2022-10-31T09:13:05.077Z,14.09
2022-10-31T09:15:31.399Z,14.18
2022-10-31T09:17:57.968Z,14.31
2022-10-31T09:20:24.428Z,14.48
2022-10-31T09:22:57.952Z,14.62
2022-10-31T09:25:24.309Z,14.65
2022-10-31T09:27:50.630Z,14.75
2022-10-31T09:30:16.944Z,14.86
2022-10-31T09:32:43.298Z,14.71
2022-10-31T09:35:09.689Z,14.77
2022-10-31T09:37:36.043Z,14.67
2022-10-31T09:40:02.390Z,14.77
2022-10-31T09:42:34.765Z,14.87
2022-10-31T09:45:13.537Z,14.83
2022-10-31T09:47:52.936Z,14.84
2022-10-31T09:50:20.633Z,14.91
2022-10-31T09:52:55.535Z,14.99
2022-10-31T09:55:24.085Z,15.16
2022-10-31T09:57:50.408Z,15.25
2022-10-31T10:00:20.823Z,15.22
2022-10-31T10:02:50.092Z,15.27
2022-10-31T10:05:23.409Z,15.23
2022-10-31T10:07:54.823Z,15.33
2022-10-31T10:10:27.162Z,15.53
2022-10-31T10:13:03.425Z,15.78
2022-10-31T10:15:36.209Z,15.82
2022-10-31T10:18:11.805Z,16.02
2022-10-31T10:20:44.221Z,16.10
2022-10-31T10:23:29.211Z,16.17
2022-10-31T10:26:00.137Z,16.16
2022-10-31T10:28:27.842Z,16.35
2022-10-31T10:30:56.039Z,16.43
2022-10-31T10:33:28.387Z,16.28
2022-10-31T10:35:56.424Z,16.38
2022-10-31T10:38:41.665Z,16.57
2022-10-31T10:41:11.389Z,16.69
2022-10-31T10:43:38.370Z,16.69
2022-10-31T10:46:23.562Z,16.51
2022-10-31T10:48:58.160Z,16.70
2022-10-31T10:51:54.419Z,16.88
2022-10-31T10:54:38.169Z,17.02
2022-10-31T10:57:23.492Z,17.18
2022-10-31T10:59:51.252Z,17.19
2022-10-31T11:02:24.777Z,17.43
2022-10-31T11:04:52.410Z,17.55
2022-10-31T11:07:18.797Z,17.74
2022-10-31T11:09:45.128Z,17.75
2022-10-31T11:12:20.114Z,17.70
2022-10-31T11:14:47.773Z,17.50
2022-10-31T11:17:32.957Z,17.37
2022-10-31T11:20:05.488Z,17.23
2022-10-31T11:22:31.808Z,17.11
2022-10-31T11:24:58.481Z,17.26
2022-10-31T11:27:25.408Z,17.26
2022-10-31T11:29:53.666Z,17.55
2022-10-31T11:32:23.960Z,17.84
2022-10-31T11:34:54.277Z,18.14
2022-10-31T11:37:24.580Z,18.20
2022-10-31T11:39:55.251Z,18.34
2022-10-31T11:42:22.318Z,18.40
2022-10-31T11:44:48.654Z,18.44
2022-10-31T11:47:15.777Z,18.65
2022-10-31T11:49:42.549Z,18.91
2022-10-31T11:52:14.782Z,19.13
2022-10-31T11:54:52.612Z,19.02
2022-10-31T11:57:32.388Z,19.02
2022-10-31T11:59:59.784Z,19.44
2022-10-31T12:02:26.236Z,19.68
2022-10-31T12:04:55.707Z,19.73
2022-10-31T12:07:22.037Z,19.94
2022-10-31T12:09:48.347Z,19.89
2022-10-31T12:12:17.613Z,19.73
2022-10-31T12:14:45.001Z,19.41
2022-10-31T12:17:19.065Z,19.14
2022-10-31T12:20:04.332Z,19.01
2022-10-31T12:22:39.991Z,18.46
2022-10-31T12:25:12.549Z,18.43
2022-10-31T12:27:38.825Z,18.36
2022-10-31T12:30:05.231Z,18.41
2022-10-31T12:32:50.339Z,18.42
2022-10-31T12:35:20.887Z,18.59
2022-10-31T12:37:59.713Z,18.82
2022-10-31T12:40:45.033Z,19.08
2022-10-31T12:43:21.879Z,19.22
2022-10-31T12:45:51.467Z,19.21
2022-10-31T12:48:20.855Z,19.17
2022-10-31T12:50:59.142Z,19.10
2022-10-31T12:53:28.740Z,18.71
2022-10-31T12:55:57.972Z,18.67
2022-10-31T12:58:28.107Z,18.81
2022-10-31T13:01:07.298Z,18.52
2022-10-31T13:03:39.797Z,18.33
2022-10-31T13:06:07.382Z,18.29
2022-10-31T13:08:39.173Z,18.32
2022-10-31T13:11:12.521Z,18.41
2022-10-31T13:13:41.791Z,18.41
2022-10-31T13:16:16.317Z,18.50
2022-10-31T13:18:49.697Z,18.43
2022-10-31T13:21:22.139Z,18.45
2022-10-31T13:23:51.595Z,18.46
2022-10-31T13:26:21.543Z,18.43
2022-10-31T13:28:57.143Z,18.43
2022-10-31T13:31:23.452Z,18.36
2022-10-31T13:33:52.519Z,18.40
2022-10-31T13:36:24.871Z,18.34
2022-10-31T13:39:11.411Z,18.28
2022-10-31T13:41:37.717Z,18.19
2022-10-31T13:44:12.061Z,18.10
2022-10-31T13:46:39.218Z,18.05
2022-10-31T13:49:05.778Z,18.05
2022-10-31T13:51:33.294Z,17.96
2022-10-31T13:54:00.737Z,17.90
2022-10-31T13:56:29.830Z,17.91
2022-10-31T13:58:59.309Z,17.85
2022-10-31T14:01:25.785Z,17.83
2022-10-31T14:04:07.858Z,17.84
2022-10-31T14:06:58.080Z,17.75
2022-10-31T14:09:28.976Z,17.74
2022-10-31T14:11:55.415Z,17.68
2022-10-31T14:14:21.870Z,17.62
2022-10-31T14:16:55.605Z,17.58
2022-10-31T14:19:22.281Z,17.59
2022-10-31T14:21:48.874Z,17.55
2022-10-31T14:24:16.581Z,17.48
2022-10-31T14:26:53.366Z,17.50
2022-10-31T14:29:19.687Z,17.47
2022-10-31T14:32:11.845Z,17.39
2022-10-31T14:34:42.040Z,17.43
2022-10-31T14:37:11.451Z,17.43
2022-10-31T14:39:47.091Z,17.38
2022-10-31T14:42:19.178Z,17.27
2022-10-31T14:45:04.110Z,17.21
2022-10-31T14:47:33.874Z,17.17
2022-10-31T14:50:19.307Z,17.14
2022-10-31T14:52:46.743Z,17.11
2022-10-31T14:55:13.125Z,16.94
2022-10-31T14:57:39.476Z,16.91
2022-10-31T15:00:06.825Z,16.86
2022-10-31T15:02:42.576Z,16.88
2022-10-31T15:05:09.268Z,16.79
2022-10-31T15:07:37.687Z,16.76
2022-10-31T15:10:05.402Z,16.71
2022-10-31T15:12:32.524Z,16.69
2022-10-31T15:14:59.695Z,16.65
2022-10-31T15:17:26.441Z,16.65
2022-10-31T15:19:53.077Z,16.53
2022-10-31T15:22:20.113Z,16.51
2022-10-31T15:24:46.439Z,16.50
2022-10-31T15:27:13.418Z,16.37
2022-10-31T15:29:47.758Z,16.26
2022-10-31T15:32:24.039Z,16.23
2022-10-31T15:34:50.887Z,16.17
2022-10-31T15:37:18.138Z,16.13
2022-10-31T15:39:44.637Z,16.01
2022-10-31T15:42:15.677Z,16.00
2022-10-31T15:44:42.066Z,15.93
2022-10-31T15:47:17.748Z,15.97
2022-10-31T15:49:56.975Z,15.89
2022-10-31T15:52:26.391Z,15.84
2022-10-31T15:54:56.781Z,15.85
2022-10-31T15:57:29.073Z,15.73
2022-10-31T15:59:55.382Z,15.70
2022-10-31T16:02:25.839Z,15.70
2022-10-31T16:04:55.998Z,15.69
2022-10-31T16:07:23.661Z,15.71
2022-10-31T16:09:53.337Z,15.69
2022-10-31T16:12:22.447Z,15.72
2022-10-31T16:14:49.367Z,15.64
2022-10-31T16:17:16.306Z,15.56
2022-10-31T16:19:49.960Z,15.48
2022-10-31T16:22:20.790Z,15.50
2022-10-31T16:24:47.309Z,15.42
2022-10-31T16:27:20.618Z,15.36
2022-10-31T16:29:47.430Z,15.39
2022-10-31T16:32:32.661Z,15.39
2022-10-31T16:35:11.175Z,15.37
2022-10-31T16:37:40.805Z,15.32
2022-10-31T16:40:07.602Z,15.28
2022-10-31T16:42:33.957Z,15.34
2022-10-31T16:45:00.532Z,15.32
2022-10-31T16:47:28.615Z,15.36
2022-10-31T16:49:55.444Z,15.33
2022-10-31T16:52:21.862Z,15.32
2022-10-31T16:54:48.183Z,15.37
2022-10-31T16:57:15.706Z,15.39
2022-10-31T16:59:42.041Z,15.49
2022-10-31T17:02:11.062Z,15.48
2022-10-31T17:04:37.749Z,15.52
2022-10-31T17:07:04.111Z,15.49
2022-10-31T17:09:30.471Z,15.54
2022-10-31T17:11:56.793Z,15.44
2022-10-31T17:14:23.146Z,15.38
2022-10-31T17:16:49.469Z,15.38
2022-10-31T17:19:15.842Z,15.44
2022-10-31T17:21:42.177Z,15.41
2022-10-31T17:24:09.475Z,15.36
2022-10-31T17:26:35.812Z,15.31
2022-10-31T17:29:03.529Z,15.41
2022-10-31T17:31:30.787Z,15.35
2022-10-31T17:34:02.298Z,15.23
2022-10-31T17:36:29.990Z,15.20
2022-10-31T17:38:56.313Z,15.16
2022-10-31T17:41:22.662Z,15.12
2022-10-31T17:43:48.974Z,15.07
2022-10-31T17:46:15.436Z,15.06
2022-10-31T17:48:41.866Z,15.05
2022-10-31T17:51:08.213Z,15.00
2022-10-31T17:53:34.883Z,14.86
2022-10-31T17:56:05.065Z,14.84
2022-10-31T17:58:31.443Z,14.80
2022-10-31T18:00:58.000Z,14.75
2022-10-31T18:03:24.571Z,14.59
2022-10-31T18:05:51.501Z,14.56
2022-10-31T18:08:17.830Z,14.57
2022-10-31T18:10:44.183Z,14.60
2022-10-31T18:13:10.501Z,14.62
2022-10-31T18:15:39.537Z,14.63
2022-10-31T18:18:07.187Z,14.56
2022-10-31T18:20:33.522Z,14.49
2022-10-31T18:22:59.867Z,14.51
2022-10-31T18:25:26.239Z,14.41
2022-10-31T18:27:52.566Z,14.41
2022-10-31T18:30:18.966Z,14.41
2022-10-31T18:32:45.387Z,14.34
2022-10-31T18:35:11.751Z,14.38
2022-10-31T18:37:38.116Z,14.45
2022-10-31T18:40:05.366Z,14.42
2022-10-31T18:42:31.695Z,14.41
2022-10-31T18:45:00.268Z,14.43
2022-10-31T18:47:33.161Z,14.49
2022-10-31T18:49:59.501Z,14.54
2022-10-31T18:52:25.829Z,14.54
2022-10-31T18:54:52.227Z,14.66
2022-10-31T18:57:19.590Z,14.77
2022-10-31T18:59:45.910Z,14.82
2022-10-31T19:02:14.888Z,14.79
2022-10-31T19:04:41.399Z,14.80
2022-10-31T19:07:07.777Z,14.84
2022-10-31T19:09:34.354Z,14.86
2022-10-31T19:12:00.927Z,14.83
2022-10-31T19:14:27.257Z,14.85
2022-10-31T19:16:54.499Z,14.99
2022-10-31T19:19:22.393Z,14.99
2022-10-31T19:21:48.783Z,14.88
2022-10-31T19:24:15.163Z,14.87
2022-10-31T19:26:41.557Z,14.85
2022-10-31T19:29:07.885Z,14.79
2022-10-31T19:31:34.241Z,14.80
2022-10-31T19:34:00.622Z,14.80
2022-10-31T19:36:27.577Z,14.74
2022-10-31T19:38:53.895Z,14.81
2022-10-31T19:41:26.793Z,14.85
2022-10-31T19:43:53.227Z,14.86
2022-10-31T19:46:27.691Z,14.88
2022-10-31T19:49:00.104Z,15.01
2022-10-31T19:51:26.482Z,15.00
2022-10-31T19:53:53.584Z,14.89
2022-10-31T19:56:21.881Z,14.89
2022-10-31T19:58:48.232Z,14.88
2022-10-31T20:01:16.210Z,14.89
2022-10-31T20:03:42.891Z,14.88
2022-10-31T20:06:13.994Z,14.93
2022-10-31T20:08:40.669Z,14.85
2022-10-31T20:11:07.075Z,14.80
2022-10-31T20:13:33.518Z,14.90
2022-10-31T20:16:00.604Z,14.90
2022-10-31T20:18:27.027Z,14.88
2022-10-31T20:20:53.670Z,14.88
2022-10-31T20:23:20.083Z,14.81
2022-10-31T20:25:49.597Z,14.75
2022-10-31T20:28:16.231Z,14.73
2022-10-31T20:30:42.667Z,14.58
2022-10-31T20:33:09.062Z,14.47
2022-10-31T20:35:38.819Z,14.49
2022-10-31T20:38:05.318Z,14.46
2022-10-31T20:40:31.885Z,14.51
2022-10-31T20:42:58.594Z,14.45
2022-10-31T20:45:24.993Z,14.40
2022-10-31T20:47:51.306Z,14.24
2022-10-31T20:50:17.842Z,14.20
2022-10-31T20:52:44.169Z,14.10
2022-10-31T20:55:10.828Z,14.04
2022-10-31T20:57:37.159Z,13.99
2022-10-31T21:00:03.839Z,13.94
2022-10-31T21:02:30.213Z,13.91
2022-10-31T21:04:56.556Z,13.90
2022-10-31T21:07:22.880Z,13.86
2022-10-31T21:09:49.195Z,13.80
2022-10-31T21:12:15.513Z,13.70
2022-10-31T21:14:41.828Z,13.56
2022-10-31T21:17:08.158Z,13.59
2022-10-31T21:19:36.114Z,13.55
2022-10-31T21:22:02.957Z,13.51
2022-10-31T21:24:29.282Z,13.61
2022-10-31T21:26:55.599Z,13.57
2022-10-31T21:29:21.931Z,13.59
2022-10-31T21:31:48.257Z,13.78
2022-10-31T21:34:14.583Z,14.01
2022-10-31T21:36:40.912Z,14.18
2022-10-31T21:39:07.543Z,14.18
2022-10-31T21:41:33.903Z,14.14
2022-10-31T21:44:00.225Z,14.07
2022-10-31T21:46:27.225Z,13.97
2022-10-31T21:48:53.640Z,13.95
2022-10-31T21:51:24.401Z,14.00
2022-10-31T21:54:09.556Z,14.05
2022-10-31T21:56:35.919Z,14.11
2022-10-31T21:59:02.238Z,14.17
2022-10-31T22:01:29.143Z,14.21
2022-10-31T22:03:55.663Z,14.13
2022-10-31T22:06:22.016Z,14.14
2022-10-31T22:08:48.343Z,14.14
2022-10-31T22:11:15.473Z,14.08
2022-10-31T22:13:42.303Z,14.05
2022-10-31T22:16:12.580Z,14.00
2022-10-31T22:18:39.285Z,13.92
2022-10-31T22:21:09.497Z,13.78
2022-10-31T22:23:35.867Z,13.65
2022-10-31T22:26:05.781Z,13.91
2022-10-31T22:28:32.372Z,14.03
2022-10-31T22:30:58.769Z,14.03
2022-10-31T22:33:25.490Z,13.94
2022-10-31T22:35:52.110Z,13.90
2022-10-31T22:38:18.474Z,13.78
2022-10-31T22:40:44.814Z,13.82
2022-10-31T22:43:11.205Z,13.72
2022-10-31T22:45:37.531Z,13.68
2022-10-31T22:48:04.210Z,13.61
2022-10-31T22:50:30.817Z,13.39
2022-10-31T22:52:57.133Z,13.27
2022-10-31T22:55:23.832Z,13.22
2022-10-31T22:57:50.192Z,13.14
2022-10-31T23:00:18.398Z,13.16
2022-10-31T23:02:44.731Z,13.19
2022-10-31T23:05:11.053Z,13.18
2022-10-31T23:07:37.379Z,13.12
2022-10-31T23:10:03.858Z,13.05
2022-10-31T23:12:48.935Z,13.07
2022-10-31T23:15:15.270Z,12.96
2022-10-31T23:17:41.598Z,12.92
2022-10-31T23:20:08.147Z,12.81
2022-10-31T23:22:34.466Z,12.99
2022-10-31T23:25:01.742Z,12.72
2022-10-31T23:27:28.075Z,12.62
2022-10-31T23:29:55.261Z,12.51
2022-10-31T23:32:22.444Z,12.49
2022-10-31T23:34:49.488Z,12.47
2022-10-31T23:37:16.410Z,12.43
2022-10-31T23:39:42.740Z,12.49
2022-10-31T23:42:09.081Z,12.44
2022-10-31T23:44:35.534Z,12.39
2022-10-31T23:47:02.089Z,12.44
2022-10-31T23:49:29.369Z,12.50
2022-10-31T23:51:58.959Z,12.43
2022-10-31T23:54:25.470Z,12.45
2022-10-31T23:56:52.131Z,12.38
2022-10-31T23:59:18.453Z,12.45
